createdAt,value
2023-03-05T00:01:27.560Z,93.70
2023-03-05T00:03:57.802Z,93.50
2023-03-05T00:06:27.954Z,94.20
2023-03-05T00:08:58.216Z,94.00
2023-03-05T00:11:29.909Z,94.20
2023-03-05T00:13:58.886Z,94.40
2023-03-05T00:16:27.273Z,94.20
2023-03-05T00:18:57.606Z,93.20
2023-03-05T00:21:27.964Z,94.00
2023-03-05T00:23:56.438Z,94.70
2023-03-05T00:26:26.779Z,94.70
2023-03-05T00:28:56.629Z,94.50
2023-03-05T00:31:30.257Z,94.00
2023-03-05T00:34:02.103Z,94.10
2023-03-05T00:36:30.846Z,94.60
2023-03-05T00:39:00.123Z,94.40
2023-03-05T00:41:28.312Z,94.60
2023-03-05T00:43:56.485Z,93.60
2023-03-05T00:46:27.298Z,93.40
2023-03-05T00:48:55.514Z,93.10
2023-03-05T00:51:25.890Z,93.50
2023-03-05T00:53:54.207Z,93.40
2023-03-05T00:56:22.191Z,94.40
2023-03-05T00:58:50.192Z,92.90
2023-03-05T01:01:18.413Z,93.70
2023-03-05T01:03:46.621Z,93.80
2023-03-05T01:06:17.042Z,93.70
2023-03-05T01:08:46.970Z,94.40
2023-03-05T01:11:15.452Z,94.70
2023-03-05T01:13:43.518Z,95.30
2023-03-05T01:16:11.859Z,95.80
2023-03-05T01:18:40.566Z,95.90
2023-03-05T01:21:08.893Z,96.60
2023-03-05T01:23:37.401Z,97.20
2023-03-05T01:26:08.517Z,97.50
2023-03-05T01:28:38.156Z,97.80
2023-03-05T01:31:09.142Z,97.90
2023-03-05T01:33:37.329Z,98.30
2023-03-05T01:36:10.108Z,98.30
2023-03-05T01:38:38.082Z,98.30
2023-03-05T01:41:07.610Z,99.00
2023-03-05T01:43:35.626Z,99.60
2023-03-05T01:46:38.043Z,99.70
2023-03-05T01:49:14.426Z,99.90
2023-03-05T01:51:49.602Z,99.90
2023-03-05T01:54:20.346Z,99.90
2023-03-05T01:56:51.223Z,99.90
2023-03-05T01:59:20.209Z,99.90
2023-03-05T02:01:52.836Z,99.90
2023-03-05T02:04:22.567Z,99.90
2023-03-05T02:06:50.685Z,99.90
2023-03-05T02:09:18.627Z,99.90
2023-03-05T02:11:46.630Z,99.90
2023-03-05T02:14:15.897Z,99.90
2023-03-05T02:16:44.093Z,99.90
2023-03-05T02:19:13.619Z,99.90
2023-03-05T02:21:44.585Z,99.90
2023-03-05T02:24:13.820Z,99.90
2023-03-05T02:26:43.207Z,99.90
2023-03-05T02:29:14.059Z,99.90
2023-03-05T02:31:43.258Z,99.90
2023-03-05T02:34:11.365Z,99.90
2023-03-05T02:36:39.713Z,99.90
2023-03-05T02:39:10.175Z,99.90
2023-03-05T02:41:38.361Z,99.90
2023-03-05T02:44:06.704Z,99.90
2023-03-05T02:46:34.969Z,99.90
2023-03-05T02:49:03.222Z,99.90
2023-03-05T02:51:31.438Z,99.90
2023-03-05T02:54:00.328Z,99.90
2023-03-05T02:56:31.753Z,99.90
2023-03-05T02:59:01.749Z,99.90
2023-03-05T03:01:30.114Z,99.90
2023-03-05T03:03:59.247Z,99.90
2023-03-05T03:06:27.612Z,99.90
2023-03-05T03:08:55.557Z,99.90
2023-03-05T03:11:23.506Z,99.90
2023-03-05T03:13:52.791Z,99.90
2023-03-05T03:16:20.810Z,99.90
2023-03-05T03:18:48.907Z,99.90
2023-03-05T03:21:21.538Z,99.90
2023-03-05T03:23:49.493Z,99.90
2023-03-05T03:26:17.725Z,99.90
2023-03-05T03:28:46.095Z,99.90
2023-03-05T03:31:15.888Z,99.90
2023-03-05T03:33:44.142Z,99.90
2023-03-05T03:36:13.025Z,99.90
2023-03-05T03:38:41.051Z,99.90
2023-03-05T03:41:09.803Z,99.90
2023-03-05T03:43:38.719Z,99.90
2023-03-05T03:46:07.538Z,99.90
2023-03-05T03:48:37.000Z,99.90
2023-03-05T03:51:08.678Z,99.90
2023-03-05T03:53:36.656Z,99.90
2023-03-05T03:56:05.119Z,99.90
2023-03-05T03:58:33.263Z,99.90
2023-03-05T04:01:01.384Z,99.90
2023-03-05T04:03:29.428Z,99.90
2023-03-05T04:05:58.719Z,99.90
2023-03-05T04:08:26.767Z,99.90
2023-03-05T04:10:54.761Z,99.90
2023-03-05T04:13:22.708Z,99.90
2023-03-05T04:15:50.762Z,99.90
2023-03-05T04:18:18.924Z,99.90
2023-03-05T04:20:46.880Z,99.90
2023-03-05T04:23:16.456Z,99.90
2023-03-05T04:25:44.742Z,99.90
2023-03-05T04:28:12.903Z,99.90
2023-03-05T04:30:40.818Z,99.90
2023-03-05T04:33:08.755Z,99.90
2023-03-05T04:35:37.516Z,99.90
2023-03-05T04:38:05.517Z,99.90
2023-03-05T04:40:35.292Z,99.90
2023-03-05T04:43:03.330Z,99.90
2023-03-05T04:45:31.670Z,99.90
2023-03-05T04:47:59.898Z,99.90
2023-03-05T04:50:27.907Z,99.90
2023-03-05T04:52:55.878Z,99.90
2023-03-05T04:55:23.879Z,99.90
2023-03-05T04:57:53.230Z,99.90
2023-03-05T05:00:21.863Z,99.90
2023-03-05T05:02:51.821Z,99.90
2023-03-05T05:05:22.148Z,99.90
2023-03-05T05:07:50.301Z,99.90
2023-03-05T05:10:18.338Z,99.90
2023-03-05T05:12:46.411Z,99.90
2023-03-05T05:15:16.101Z,99.90
2023-03-05T05:17:44.347Z,99.90
2023-03-05T05:20:14.265Z,99.90
2023-03-05T05:22:42.478Z,99.90
2023-03-05T05:25:11.604Z,99.90
2023-03-05T05:27:40.458Z,99.90
2023-03-05T05:30:09.814Z,99.90
2023-03-05T05:32:39.314Z,99.90
2023-03-05T05:35:09.182Z,99.90
2023-03-05T05:37:37.117Z,99.90
2023-03-05T05:40:06.549Z,99.90
2023-03-05T05:42:35.032Z,99.90
2023-03-05T05:45:03.864Z,99.90
2023-03-05T05:47:31.810Z,99.90
2023-03-05T05:50:01.155Z,99.90
2023-03-05T05:52:29.052Z,99.90
2023-03-05T05:54:57.058Z,99.90
2023-03-05T05:57:25.125Z,99.90
2023-03-05T05:59:53.369Z,99.90
2023-03-05T06:02:21.430Z,99.90
2023-03-05T06:04:49.557Z,99.90
2023-03-05T06:07:18.811Z,99.90
2023-03-05T06:09:46.683Z,99.90
2023-03-05T06:12:14.627Z,99.90
2023-03-05T06:14:42.666Z,99.90
2023-03-05T06:17:12.917Z,99.90
2023-03-05T06:19:42.863Z,99.90
2023-03-05T06:22:10.852Z,99.90
2023-03-05T06:24:40.399Z,99.90
2023-03-05T06:27:08.331Z,99.90
2023-03-05T06:29:36.292Z,99.90
2023-03-05T06:32:05.234Z,99.50
2023-03-05T06:34:33.233Z,98.80
2023-03-05T06:37:01.250Z,98.10
2023-03-05T06:39:30.282Z,97.60
2023-03-05T06:41:59.619Z,98.10
2023-03-05T06:44:27.680Z,97.20
2023-03-05T06:46:55.681Z,95.30
2023-03-05T06:49:23.646Z,93.50
2023-03-05T06:51:51.619Z,94.20
2023-03-05T06:54:19.685Z,92.90
2023-03-05T06:56:48.205Z,92.10
2023-03-05T06:59:18.479Z,92.70
2023-03-05T07:01:46.535Z,93.30
2023-03-05T07:04:15.022Z,93.50
2023-03-05T07:06:43.664Z,92.20
2023-03-05T07:09:15.803Z,91.90
2023-03-05T07:11:43.994Z,91.30
2023-03-05T07:14:12.246Z,91.80
2023-03-05T07:16:41.574Z,91.70
2023-03-05T07:19:10.937Z,90.70
2023-03-05T07:21:40.017Z,88.40
2023-03-05T07:24:09.429Z,88.50
2023-03-05T07:26:37.598Z,86.70
2023-03-05T07:29:05.832Z,87.30
2023-03-05T07:31:33.754Z,85.90
2023-03-05T07:34:04.429Z,85.70
2023-03-05T07:36:34.858Z,82.20
2023-03-05T07:39:04.896Z,83.90
2023-03-05T07:41:33.150Z,83.50
2023-03-05T07:44:01.101Z,84.40
2023-03-05T07:46:32.280Z,82.70
2023-03-05T07:49:02.028Z,82.40
2023-03-05T07:51:30.073Z,82.90
2023-03-05T07:53:59.874Z,79.70
2023-03-05T07:56:31.737Z,80.30
2023-03-05T07:59:00.245Z,80.70
2023-03-05T08:01:28.482Z,81.00
2023-03-05T08:03:56.547Z,79.80
2023-03-05T08:06:25.945Z,79.00
2023-03-05T08:08:53.934Z,80.50
2023-03-05T08:11:22.233Z,81.60
2023-03-05T08:13:50.525Z,81.10
2023-03-05T08:16:20.920Z,78.40
2023-03-05T08:18:49.555Z,78.40
2023-03-05T08:21:18.854Z,79.50
2023-03-05T08:23:48.398Z,79.60
2023-03-05T08:26:18.649Z,78.40
2023-03-05T08:28:46.694Z,78.00
2023-03-05T08:31:16.871Z,79.10
2023-03-05T08:33:45.165Z,79.10
2023-03-05T08:36:13.280Z,80.70
2023-03-05T08:38:41.976Z,79.10
2023-03-05T08:41:11.622Z,79.80
2023-03-05T08:43:39.651Z,80.20
2023-03-05T08:46:07.866Z,78.80
2023-03-05T08:48:35.920Z,80.30
2023-03-05T08:51:08.831Z,80.40
2023-03-05T08:53:37.000Z,80.90
2023-03-05T08:56:05.192Z,80.70
2023-03-05T08:58:34.487Z,78.50
2023-03-05T09:01:02.470Z,79.60
2023-03-05T09:03:30.585Z,78.00
2023-03-05T09:06:01.934Z,79.00
2023-03-05T09:08:30.337Z,80.00
2023-03-05T09:10:58.692Z,79.40
2023-03-05T09:13:26.695Z,78.60
2023-03-05T09:16:01.158Z,79.80
2023-03-05T09:18:29.544Z,78.30
2023-03-05T09:20:57.661Z,79.30
2023-03-05T09:23:26.202Z,79.90
2023-03-05T09:25:54.235Z,78.90
2023-03-05T09:28:22.166Z,80.30
2023-03-05T09:30:50.110Z,78.90
2023-03-05T09:33:19.412Z,79.00
2023-03-05T09:35:48.781Z,80.80
2023-03-05T09:38:16.702Z,80.10
2023-03-05T09:40:50.174Z,78.90
2023-03-05T09:43:30.904Z,77.70
2023-03-05T09:46:19.643Z,77.20
2023-03-05T09:48:53.845Z,77.50
2023-03-05T09:51:25.634Z,79.80
2023-03-05T09:54:03.020Z,79.80
2023-03-05T09:56:36.105Z,80.00
2023-03-05T09:59:15.309Z,78.10
2023-03-05T10:01:45.004Z,80.10
2023-03-05T10:04:17.488Z,77.10
2023-03-05T10:06:51.212Z,79.50
2023-03-05T10:09:32.692Z,80.70
2023-03-05T10:12:04.272Z,80.00
2023-03-05T10:14:35.065Z,76.80
2023-03-05T10:17:23.943Z,75.30
2023-03-05T10:20:23.789Z,79.30
2023-03-05T10:23:06.317Z,78.90
2023-03-05T10:25:51.134Z,77.40
2023-03-05T10:28:26.412Z,76.70
2023-03-05T10:31:12.580Z,76.80
2023-03-05T10:33:49.836Z,79.70
2023-03-05T10:36:35.515Z,80.10
2023-03-05T10:39:40.426Z,79.60
2023-03-05T10:42:16.360Z,79.60
2023-03-05T10:44:50.783Z,80.70
2023-03-05T10:47:26.360Z,82.80
2023-03-05T10:49:55.976Z,86.20
2023-03-05T10:52:30.250Z,87.30
2023-03-05T10:54:58.227Z,86.50
2023-03-05T10:57:28.145Z,88.90
2023-03-05T11:00:02.158Z,89.20
2023-03-05T11:02:30.373Z,88.10
2023-03-05T11:04:58.491Z,89.30
2023-03-05T11:07:39.928Z,89.40
2023-03-05T11:10:21.286Z,91.40
2023-03-05T11:12:49.416Z,92.40
2023-03-05T11:15:30.746Z,94.60
2023-03-05T11:18:21.272Z,97.60
2023-03-05T11:20:49.519Z,99.90
2023-03-05T11:23:20.017Z,99.90
2023-03-05T11:25:58.156Z,99.90
2023-03-05T11:28:33.339Z,99.90
2023-03-05T11:31:09.426Z,99.90
2023-03-05T11:33:38.488Z,99.90
2023-03-05T11:36:24.876Z,99.90
2023-03-05T11:38:57.070Z,99.90
2023-03-05T11:41:30.723Z,99.90
2023-03-05T11:44:00.630Z,99.90
2023-03-05T11:46:29.126Z,99.90
2023-03-05T11:48:58.992Z,99.90
2023-03-05T11:51:31.884Z,99.90
2023-03-05T11:54:09.635Z,99.90
2023-03-05T11:56:39.250Z,99.90
2023-03-05T11:59:15.620Z,99.90
2023-03-05T12:01:46.532Z,99.90
2023-03-05T12:04:15.005Z,99.90
2023-03-05T12:06:47.074Z,99.90
2023-03-05T12:09:24.705Z,99.90
2023-03-05T12:11:57.514Z,99.90
2023-03-05T12:14:29.857Z,99.90
2023-03-05T12:17:05.432Z,99.90
2023-03-05T12:19:41.826Z,99.90
2023-03-05T12:22:18.624Z,99.90
2023-03-05T12:24:48.144Z,99.90
2023-03-05T12:27:18.026Z,99.90
2023-03-05T12:29:49.185Z,99.90
2023-03-05T12:33:00.720Z,99.90
2023-03-05T12:35:35.890Z,99.90
2023-03-05T12:38:25.639Z,99.90
2023-03-05T12:41:37.549Z,99.90
2023-03-05T12:44:26.720Z,99.90
2023-03-05T12:47:17.809Z,99.90
2023-03-05T12:49:47.874Z,99.90
2023-03-05T12:52:27.484Z,99.90
2023-03-05T12:55:21.340Z,99.90
2023-03-05T12:57:56.642Z,99.90
2023-03-05T13:00:28.904Z,99.90
2023-03-05T13:02:59.506Z,99.90
2023-03-05T13:05:30.985Z,99.90
2023-03-05T13:08:14.863Z,99.90
2023-03-05T13:10:44.699Z,99.90
2023-03-05T13:13:16.634Z,99.90
2023-03-05T13:15:47.534Z,99.90
2023-03-05T13:18:21.140Z,99.90
2023-03-05T13:20:52.199Z,99.90
2023-03-05T13:23:24.766Z,99.90
2023-03-05T13:26:02.283Z,99.90
2023-03-05T13:28:32.985Z,99.90
2023-03-05T13:31:03.316Z,99.90
2023-03-05T13:33:33.550Z,99.90
2023-03-05T13:36:02.210Z,99.90
2023-03-05T13:38:34.863Z,99.90
2023-03-05T13:41:09.614Z,99.90
2023-03-05T13:43:45.559Z,99.90
2023-03-05T13:46:13.771Z,99.90
2023-03-05T13:48:41.778Z,99.90
2023-03-05T13:51:11.924Z,99.90
2023-03-05T13:53:40.010Z,99.90
2023-03-05T13:56:16.021Z,99.90
2023-03-05T13:58:53.416Z,99.90
2023-03-05T14:01:31.812Z,99.90
2023-03-05T14:04:05.429Z,99.90
2023-03-05T14:06:42.075Z,99.90
2023-03-05T14:09:21.386Z,99.90
2023-03-05T14:12:01.814Z,99.90
2023-03-05T14:14:32.395Z,99.90
2023-03-05T14:17:25.237Z,99.90
2023-03-05T14:19:53.332Z,99.90
2023-03-05T14:22:32.992Z,99.90
2023-03-05T14:25:00.954Z,99.90
2023-03-05T14:27:32.516Z,99.90
2023-03-05T14:30:03.064Z,99.90
2023-03-05T14:32:33.983Z,99.90
2023-03-05T14:35:05.089Z,99.90
2023-03-05T14:37:36.120Z,99.90
2023-03-05T14:40:08.432Z,99.90
2023-03-05T14:42:39.250Z,99.90
2023-03-05T14:45:14.868Z,99.90
2023-03-05T14:47:42.816Z,99.90
2023-03-05T14:50:15.918Z,99.90
2023-03-05T14:52:44.340Z,99.90
2023-03-05T14:55:16.709Z,99.90
2023-03-05T14:57:45.005Z,99.90
2023-03-05T15:00:18.778Z,99.90
2023-03-05T15:02:46.731Z,99.90
2023-03-05T15:05:14.869Z,99.90
2023-03-05T15:07:44.227Z,99.90
2023-03-05T15:10:14.928Z,99.90
2023-03-05T15:12:42.906Z,99.90
2023-03-05T15:15:14.032Z,99.90
2023-03-05T15:17:47.335Z,99.90
2023-03-05T15:20:17.792Z,99.90
2023-03-05T15:22:45.764Z,99.90
2023-03-05T15:25:14.260Z,99.90
2023-03-05T15:27:42.536Z,99.90
2023-03-05T15:30:21.188Z,99.90
2023-03-05T15:32:50.764Z,99.90
2023-03-05T15:35:19.132Z,99.90
2023-03-05T15:37:47.178Z,99.90
2023-03-05T15:40:15.481Z,99.90
2023-03-05T15:42:43.496Z,99.90
2023-03-05T15:45:11.831Z,99.90
2023-03-05T15:47:39.778Z,99.90
2023-03-05T15:50:11.018Z,99.90
2023-03-05T15:52:39.091Z,99.90
2023-03-05T15:55:08.095Z,99.90
2023-03-05T15:57:38.399Z,99.90
2023-03-05T16:00:08.187Z,99.90
2023-03-05T16:02:37.987Z,99.90
2023-03-05T16:05:07.066Z,99.90
2023-03-05T16:07:39.012Z,99.90
2023-03-05T16:10:08.372Z,99.90
2023-03-05T16:12:40.807Z,99.90
2023-03-05T16:15:10.676Z,99.90
2023-03-05T16:17:42.147Z,99.90
2023-03-05T16:20:12.508Z,99.90
2023-03-05T16:22:41.790Z,99.90
2023-03-05T16:25:10.482Z,99.90
2023-03-05T16:27:38.542Z,99.90
2023-03-05T16:30:08.020Z,99.90
2023-03-05T16:32:37.561Z,99.90
2023-03-05T16:35:06.249Z,99.90
2023-03-05T16:37:34.204Z,99.90
2023-03-05T16:40:03.731Z,99.90
2023-03-05T16:42:39.945Z,99.90
2023-03-05T16:45:09.558Z,99.90
2023-03-05T16:47:38.390Z,99.90
2023-03-05T16:50:07.514Z,99.90
2023-03-05T16:52:35.497Z,99.90
2023-03-05T16:55:05.223Z,99.90
2023-03-05T16:57:33.255Z,99.90
2023-03-05T17:00:04.057Z,99.90
2023-03-05T17:02:32.055Z,99.90
2023-03-05T17:05:00.063Z,99.90
2023-03-05T17:07:28.415Z,99.90
2023-03-05T17:09:56.418Z,99.90
2023-03-05T17:12:25.711Z,99.90
2023-03-05T17:14:53.710Z,99.90
2023-03-05T17:17:21.644Z,99.90
2023-03-05T17:19:49.711Z,99.90
2023-03-05T17:22:17.764Z,99.90
2023-03-05T17:24:47.242Z,99.90
2023-03-05T17:27:18.637Z,99.90
2023-03-05T17:29:47.989Z,99.90
2023-03-05T17:32:16.076Z,99.90
2023-03-05T17:34:44.491Z,99.90
2023-03-05T17:37:12.654Z,99.90
2023-03-05T17:39:41.144Z,99.90
2023-03-05T17:42:09.140Z,99.90
2023-03-05T17:44:37.198Z,99.90
2023-03-05T17:47:06.896Z,99.90
2023-03-05T17:49:35.200Z,99.90
2023-03-05T17:52:03.306Z,99.90
2023-03-05T17:54:31.434Z,99.90
2023-03-05T17:57:00.647Z,99.90
2023-03-05T17:59:29.368Z,99.90
2023-03-05T18:01:57.478Z,99.90
2023-03-05T18:04:27.186Z,99.90
2023-03-05T18:06:55.170Z,99.90
2023-03-05T18:09:23.091Z,99.90
2023-03-05T18:11:51.095Z,99.90
2023-03-05T18:14:19.094Z,99.90
2023-03-05T18:16:47.419Z,99.90
2023-03-05T18:19:15.660Z,99.90
2023-03-05T18:21:44.945Z,99.90
2023-03-05T18:24:13.321Z,99.90
2023-03-05T18:26:41.246Z,99.90
2023-03-05T18:29:09.250Z,99.90
2023-03-05T18:31:37.185Z,99.90
2023-03-05T18:34:05.500Z,99.90
2023-03-05T18:36:33.955Z,99.90
2023-03-05T18:39:04.098Z,99.90
2023-03-05T18:41:32.262Z,99.90
2023-03-05T18:44:00.240Z,99.90
2023-03-05T18:46:28.371Z,99.90
2023-03-05T18:48:56.465Z,99.90
2023-03-05T18:51:25.773Z,99.90
2023-03-05T18:53:55.092Z,99.90
2023-03-05T18:56:25.170Z,99.90
2023-03-05T18:58:53.095Z,99.90
2023-03-05T19:01:21.689Z,99.90
2023-03-05T19:03:50.035Z,99.90
2023-03-05T19:06:18.398Z,99.90
2023-03-05T19:08:46.913Z,99.90
2023-03-05T19:11:17.447Z,99.90
2023-03-05T19:13:49.053Z,99.90
2023-03-05T19:16:18.900Z,99.90
2023-03-05T19:19:22.526Z,99.90
2023-03-05T19:21:53.506Z,99.90
2023-03-05T19:24:22.297Z,99.90
2023-03-05T19:26:55.077Z,99.90
2023-03-05T19:29:25.183Z,99.90
2023-03-05T19:31:53.488Z,99.90
2023-03-05T19:34:21.576Z,99.90
2023-03-05T19:36:49.697Z,99.90
2023-03-05T19:39:17.766Z,99.90
2023-03-05T19:41:45.811Z,99.90
2023-03-05T19:44:14.496Z,99.90
2023-03-05T19:46:43.837Z,99.90
2023-03-05T19:49:12.237Z,99.90
2023-03-05T19:51:42.506Z,99.90
2023-03-05T19:54:10.977Z,99.90
2023-03-05T19:56:39.917Z,99.90
2023-03-05T19:59:08.442Z,99.90
2023-03-05T20:01:37.209Z,99.90
2023-03-05T20:04:06.939Z,99.90
2023-03-05T20:06:35.167Z,99.90
2023-03-05T20:09:03.211Z,99.90
2023-03-05T20:11:31.295Z,99.90
2023-03-05T20:13:59.934Z,99.90
2023-03-05T20:16:30.613Z,99.90
2023-03-05T20:18:59.912Z,99.90
2023-03-05T20:21:31.968Z,99.90
2023-03-05T20:24:02.702Z,99.90
2023-03-05T20:26:31.337Z,99.90
2023-03-05T20:28:59.379Z,99.90
2023-03-05T20:31:28.412Z,99.90
2023-03-05T20:33:57.061Z,99.90
2023-03-05T20:36:26.780Z,99.90
2023-03-05T20:38:56.090Z,99.90
2023-03-05T20:41:24.541Z,99.90
2023-03-05T20:43:53.389Z,99.90
2023-03-05T20:46:23.880Z,99.90
2023-03-05T20:48:53.930Z,99.90
2023-03-05T20:51:24.748Z,99.90
2023-03-05T20:53:56.665Z,99.90
2023-03-05T20:56:28.137Z,99.90
2023-03-05T20:58:58.202Z,99.90
2023-03-05T21:01:26.904Z,99.90
2023-03-05T21:03:57.038Z,99.90
2023-03-05T21:06:25.882Z,99.90
2023-03-05T21:08:54.405Z,99.90
2023-03-05T21:11:23.038Z,99.90
2023-03-05T21:13:52.489Z,99.90
2023-03-05T21:16:22.316Z,99.90
2023-03-05T21:18:51.945Z,99.90
2023-03-05T21:21:20.651Z,99.90
2023-03-05T21:23:48.733Z,99.90
2023-03-05T21:26:16.895Z,99.90
2023-03-05T21:28:44.919Z,99.90
2023-03-05T21:31:17.536Z,99.90
2023-03-05T21:33:45.650Z,99.90
2023-03-05T21:36:18.406Z,99.90
2023-03-05T21:38:46.835Z,99.90
2023-03-05T21:41:15.225Z,99.90
2023-03-05T21:43:43.310Z,99.90
2023-03-05T21:46:11.587Z,99.90
2023-03-05T21:48:40.889Z,99.90
2023-03-05T21:52:09.254Z,99.90
2023-03-05T21:54:37.553Z,99.90
2023-03-05T21:57:06.632Z,99.90
2023-03-05T21:59:34.732Z,99.90
2023-03-05T22:02:03.030Z,99.90
2023-03-05T22:04:32.387Z,99.90
2023-03-05T22:07:00.357Z,99.90
2023-03-05T22:09:28.364Z,99.90
2023-03-05T22:11:56.433Z,99.90
2023-03-05T22:14:24.782Z,99.90
2023-03-05T22:16:53.642Z,99.90
2023-03-05T22:19:22.119Z,99.90
2023-03-05T22:21:51.570Z,99.90
2023-03-05T22:24:19.673Z,99.90
2023-03-05T22:26:47.677Z,99.90
2023-03-05T22:29:17.404Z,99.90
2023-03-05T22:31:45.950Z,99.90
2023-03-05T22:34:13.892Z,99.90
2023-03-05T22:36:41.846Z,99.90
2023-03-05T22:39:11.182Z,99.90
2023-03-05T22:41:41.871Z,99.90
2023-03-05T22:44:09.854Z,99.90
2023-03-05T22:46:37.792Z,99.90
2023-03-05T22:49:05.762Z,99.90
2023-03-05T22:51:33.713Z,99.90
2023-03-05T22:54:01.668Z,99.90
2023-03-05T22:56:31.165Z,99.90
2023-03-05T22:58:59.138Z,99.90
2023-03-05T23:01:27.546Z,99.90
2023-03-05T23:04:40.530Z,99.90
2023-03-05T23:07:08.591Z,99.90
2023-03-05T23:09:36.625Z,99.90
2023-03-05T23:12:06.873Z,99.90
2023-03-05T23:14:34.850Z,99.90
2023-03-05T23:17:03.697Z,99.90
2023-03-05T23:19:31.802Z,99.90
2023-03-05T23:21:59.707Z,99.90
2023-03-05T23:24:27.637Z,99.90
2023-03-05T23:26:55.587Z,99.90
2023-03-05T23:30:06.070Z,99.90
2023-03-05T23:32:37.001Z,99.90
2023-03-05T23:35:05.644Z,99.90
2023-03-05T23:37:33.940Z,99.90
2023-03-05T23:40:01.858Z,99.90
2023-03-05T23:42:29.837Z,99.90
2023-03-05T23:44:59.165Z,99.90
2023-03-05T23:47:27.174Z,99.90
2023-03-05T23:49:55.197Z,99.90
2023-03-05T23:52:23.202Z,99.90
2023-03-05T23:54:51.145Z,99.90
2023-03-05T23:57:19.129Z,99.90
2023-03-05T23:59:47.074Z,99.90
